»·PEaware :: CFEGU KPSP-KSNA

CFEGU :: KPSP-KSNA

FLIGHT INFORMATION

Flight Status: Arrived
Operator: Unknown
More flights by this operator :: More flights under this callsign
Pilot: Vincent M. (370)
Aircraft: CESSNA 172 SKYHAWK
(C172)
More flights by this aircraft type
Origin: KPSP Palm Springs Intl
United States
Destination: KSNA John Wayne-Orange Co
United States
More flights between these airports :: More routes between these airports
Route: +
File this flight plan on PilotEdge
Remarks:
Altitude:
(Current/Filed)
4,500ft
Speed:
(Current/Filed)
0kts
Departed: 09-Dec-19 05:32 PM
Arrived: 09-Dec-19 06:22 PM
Distance/Time
Traveled:
69nm/0:49
Distance/Time
To Go:
Arrived

Flight Plot

Page will automatically refresh every two minutes.


Map Options




Map Legend


Flown Route
Filed Route
Departure Airport
Arrival Airport
Navaid (VOR, NDB)
Fix

Horizontal Profiles

Position Reports

Time Latitude Longitude Heading Altitude Ground
Speed
09-Dec-19 17:26 33.823127 -116.497275 265 481ft 0kts
09-Dec-19 17:27 33.823127 -116.497275 265 481ft 0kts
09-Dec-19 17:28 33.823127 -116.497275 265 481ft 0kts
09-Dec-19 17:29 33.824463 -116.499005 339 481ft 12kts
09-Dec-19 17:30 33.824631 -116.499593 231 481ft 0kts
09-Dec-19 17:31 33.826568 -116.502068 322 481ft 64kts
09-Dec-19 17:32 33.842555 -116.515979 321 1325ft 70kts
09-Dec-19 17:33 33.858176 -116.529023 321 2180ft 68kts
09-Dec-19 17:34 33.873257 -116.541479 321 2998ft 66kts
09-Dec-19 17:35 33.887914 -116.553798 321 3777ft 63kts
09-Dec-19 17:36 33.902059 -116.566129 321 4501ft 62kts
09-Dec-19 17:37 33.918481 -116.586730 293 4497ft 99kts
09-Dec-19 17:38 33.926750 -116.617968 290 4497ft 98kts
09-Dec-19 17:39 33.933371 -116.650602 287 4496ft 101kts
09-Dec-19 17:40 33.937119 -116.684618 278 4496ft 103kts
09-Dec-19 17:41 33.938015 -116.719297 275 4496ft 103kts
09-Dec-19 17:42 33.938086 -116.754122 275 4495ft 104kts
09-Dec-19 17:43 33.938702 -116.789301 275 4496ft 106kts
09-Dec-19 17:44 33.939449 -116.824909 275 4496ft 106kts
09-Dec-19 17:45 33.940178 -116.860335 273 4511ft 105kts
09-Dec-19 17:46 33.938964 -116.895789 270 4514ft 106kts
09-Dec-19 17:47 33.936820 -116.931330 271 4514ft 106kts
09-Dec-19 17:48 33.940489 -116.965461 302 4514ft 102kts
09-Dec-19 17:49 33.955779 -116.994477 304 4505ft 102kts
09-Dec-19 17:50 33.966992 -117.026175 291 4504ft 104kts
09-Dec-19 17:51 33.975222 -117.059727 291 4504ft 104kts
09-Dec-19 17:52 33.983954 -117.093249 296 4504ft 104kts
09-Dec-19 17:53 33.995356 -117.125189 297 4504ft 103kts
09-Dec-19 17:54 34.007875 -117.156502 303 4504ft 103kts
09-Dec-19 17:55 34.022333 -117.186331 303 4504ft 103kts
09-Dec-19 17:56 34.022875 -117.220516 261 4504ft 110kts
09-Dec-19 17:57 34.015426 -117.256455 263 4504ft 109kts
09-Dec-19 17:58 34.007598 -117.291994 257 4504ft 110kts
09-Dec-19 17:59 33.998251 -117.326987 257 4504ft 109kts
09-Dec-19 18:00 33.987512 -117.361402 238 4521ft 112kts
09-Dec-19 18:01 33.962863 -117.384967 215 4522ft 116kts
09-Dec-19 18:02 33.936944 -117.407479 227 4522ft 113kts
09-Dec-19 18:03 33.914337 -117.433959 230 4522ft 113kts
09-Dec-19 18:04 33.892111 -117.460524 233 4540ft 112kts
09-Dec-19 18:05 33.876890 -117.492382 256 4540ft 109kts
09-Dec-19 18:06 33.870990 -117.527745 266 4540ft 107kts
09-Dec-19 18:07 33.867972 -117.563481 271 4549ft 106kts
09-Dec-19 18:08 33.867405 -117.599425 274 4550ft 108kts
09-Dec-19 18:09 33.867325 -117.635269 275 4550ft 107kts
09-Dec-19 18:10 33.867096 -117.668134 274 4551ft 107kts
09-Dec-19 18:11 33.866867 -117.704340 274 4550ft 108kts
09-Dec-19 18:12 33.864939 -117.740245 240 4548ft 114kts
09-Dec-19 18:13 33.835547 -117.759407 209 4345ft 133kts
09-Dec-19 18:14 33.806581 -117.777282 218 3964ft 115kts
09-Dec-19 18:15 33.781373 -117.798388 222 3560ft 107kts
09-Dec-19 18:16 33.756990 -117.816879 215 3020ft 97kts
09-Dec-19 18:17 33.734126 -117.831343 212 2158ft 87kts
09-Dec-19 18:18 33.715145 -117.843455 211 1367ft 71kts
09-Dec-19 18:19 33.697869 -117.854940 207 617ft 67kts
09-Dec-19 18:20 33.682382 -117.864601 206 99ft 56kts
09-Dec-19 18:21 33.678121 -117.868401 298 60ft 0kts
09-Dec-19 18:22 33.676163 -117.870396 266 60ft 10kts
09-Dec-19 18:23 33.676294 -117.870720 46 60ft 0kts
09-Dec-19 18:24 33.676294 -117.870720 46 60ft 0kts
09-Dec-19 18:25 33.676294 -117.870720 46 60ft 0kts
09-Dec-19 18:26 33.676643 -117.870468 42 60ft 0kts
09-Dec-19 18:27 33.676643 -117.870468 42 60ft 0kts
09-Dec-19 18:28 33.676643 -117.870468 42 60ft 0kts
09-Dec-19 18:29 33.676643 -117.870468 42 60ft 0kts
09-Dec-19 18:30 33.676643 -117.870468 42 60ft 0kts
09-Dec-19 18:31 33.676643 -117.870468 42 60ft 0kts
09-Dec-19 18:32 33.676643 -117.870468 42 60ft 0kts
09-Dec-19 18:33 33.676483 -117.870470 112 60ft 0kts
09-Dec-19 18:34 33.676327 -117.870593 269 60ft 4kts

Navigation Log

Ident Type
Flight plan parsing failed, navigation log unavailable